KMWH/MWH METAR and TAF weather

Enter ICAO airport designator
Station Type Date Time Source
KMWH METAR 2021/02/27 03:52 UTC NOAA

KMWH 270352Z 26011KT 10SM CLR 05/M07 A2981 RMK AO2 SLP104 T00501067


Station Type Date Time Source
KMWH Decoded METAR 2021/02/27 03:52 UTC NOAA

GRANT COUNTY AIRPORT, WA, United States (KMWH) 47-12N 119-19W 362M
Feb 26, 2021 - 10:52 PM EST / 2021.02.27 0352 UTC
Wind: from the W (260 degrees) at 13 MPH (11 KT):0
Visibility: 10 mile(s):0
Sky conditions: clear
Temperature: 41.0 F (5.0 C)
Dew Point: 19.9 F (-6.7 C)
Relative Humidity: 42%
Pressure (altimeter): 29.81 in. Hg (1009 hPa)
ob: KMWH 270352Z 26011KT 10SM CLR 05/M07 A2981 RMK AO2 SLP104 T00501067
cycle: 4

Station Type Date Time Source
KMWH TAF 2021/02/26 18:42 UTC NOAA

TAF KMWH 261739Z 2618/2718 29016G25KT P6SM SCT120
FM270300 28009KT P6SM BKN100

Example: see airport list